sensor_id;sensor_type;location;lat;lon;timestamp;pressure;altitude;pressure_sealevel;temperature;humidity
46768;BME280;69007;48.978;18.066;2023-05-07T00:00:08;97649.84;;;11.66;100.00
46768;BME280;69007;48.978;18.066;2023-05-07T00:02:34;97639.22;;;11.59;100.00
46768;BME280;69007;48.978;18.066;2023-05-07T00:05:00;97664.03;;;11.57;100.00
46768;BME280;69007;48.978;18.066;2023-05-07T00:07:25;97646.31;;;11.60;100.00
46768;BME280;69007;48.978;18.066;2023-05-07T00:09:51;97634.03;;;11.52;100.00
46768;BME280;69007;48.978;18.066;2023-05-07T00:12:16;97607.06;;;11.40;100.00
46768;BME280;69007;48.978;18.066;2023-05-07T00:14:41;97642.19;;;11.32;100.00
46768;BME280;69007;48.978;18.066;2023-05-07T00:17:07;97635.66;;;11.43;100.00
46768;BME280;69007;48.978;18.066;2023-05-07T00:19:32;97625.59;;;11.43;100.00
46768;BME280;69007;48.978;18.066;2023-05-07T00:21:57;97653.66;;;11.49;100.00
46768;BME280;69007;48.978;18.066;2023-05-07T00:24:23;97604.81;;;11.06;100.00
46768;BME280;69007;48.978;18.066;2023-05-07T00:26:49;97628.31;;;11.49;100.00
46768;BME280;69007;48.978;18.066;2023-05-07T00:29:14;97632.38;;;11.36;100.00
46768;BME280;69007;48.978;18.066;2023-05-07T00:31:40;97645.47;;;11.44;100.00
46768;BME280;69007;48.978;18.066;2023-05-07T00:34:05;97632.13;;;11.27;100.00
46768;BME280;69007;48.978;18.066;2023-05-07T00:36:31;97610.84;;;11.24;100.00
46768;BME280;69007;48.978;18.066;2023-05-07T00:38:59;97634.03;;;11.37;100.00
46768;BME280;69007;48.978;18.066;2023-05-07T00:41:25;97632.41;;;11.41;100.00
46768;BME280;69007;48.978;18.066;2023-05-07T00:43:51;97632.41;;;11.41;100.00
46768;BME280;69007;48.978;18.066;2023-05-07T00:46:20;97636.47;;;11.33;100.00
46768;BME280;69007;48.978;18.066;2023-05-07T00:48:46;97638.69;;;11.52;100.00
46768;BME280;69007;48.978;18.066;2023-05-07T00:51:12;97637.31;;;11.39;100.00
46768;BME280;69007;48.978;18.066;2023-05-07T00:53:38;97619.81;;;11.09;100.00
46768;BME280;69007;48.978;18.066;2023-05-07T00:56:04;97653.91;;;11.37;100.00
46768;BME280;69007;48.978;18.066;2023-05-07T00:58:32;97628.81;;;11.20;100.00
46768;BME280;69007;48.978;18.066;2023-05-07T01:00:57;97618.75;;;11.25;100.00
46768;BME280;69007;48.978;18.066;2023-05-07T01:03:23;97655.56;;;11.43;100.00
46768;BME280;69007;48.978;18.066;2023-05-07T01:05:50;97637.56;;;11.27;100.00
46768;BME280;69007;48.978;18.066;2023-05-07T01:08:16;97630.47;;;11.36;100.00
46768;BME280;69007;48.978;18.066;2023-05-07T01:10:43;97631.84;;;11.34;100.00
46768;BME280;69007;48.978;18.066;2023-05-07T01:13:10;97620.41;;;11.47;100.00
46768;BME280;69007;48.978;18.066;2023-05-07T01:15:36;97628.31;;;11.69;100.00
46768;BME280;69007;48.978;18.066;2023-05-07T01:18:02;97633.78;;;11.54;100.00
46768;BME280;69007;48.978;18.066;2023-05-07T01:20:28;97610.06;;;11.44;100.00
46768;BME280;69007;48.978;18.066;2023-05-07T01:22:53;97599.44;;;11.27;100.00
46768;BME280;69007;48.978;18.066;2023-05-07T01:25:19;97635.69;;;11.58;100.00
46768;BME280;69007;48.978;18.066;2023-05-07T01:27:45;97640.59;;;11.61;100.00
46768;BME280;69007;48.978;18.066;2023-05-07T01:30:11;97635.69;;;11.74;100.00
46768;BME280;69007;48.978;18.066;2023-05-07T01:32:39;97648.78;;;11.61;100.00
46768;BME280;69007;48.978;18.066;2023-05-07T01:35:07;97633.50;;;11.76;100.00
46768;BME280;69007;48.978;18.066;2023-05-07T01:37:35;97647.72;;;11.93;100.00
46768;BME280;69007;48.978;18.066;2023-05-07T01:40:01;97639.00;;;11.91;100.00
46768;BME280;69007;48.978;18.066;2023-05-07T01:42:28;97618.50;;;11.53;100.00
46768;BME280;69007;48.978;18.066;2023-05-07T01:44:53;97604.06;;;11.47;100.00
46768;BME280;69007;48.978;18.066;2023-05-07T01:47:19;97623.16;;;11.52;100.00
46768;BME280;69007;48.978;18.066;2023-05-07T01:49:45;97606.50;;;11.28;100.00
46768;BME280;69007;48.978;18.066;2023-05-07T01:52:11;97638.69;;;11.57;100.00
46768;BME280;69007;48.978;18.066;2023-05-07T01:54:37;97649.31;;;11.69;100.00
46768;BME280;69007;48.978;18.066;2023-05-07T01:57:02;97610.06;;;11.54;100.00
46768;BME280;69007;48.978;18.066;2023-05-07T01:59:29;97611.72;;;11.50;100.00
46768;BME280;69007;48.978;18.066;2023-05-07T02:01:54;97635.41;;;11.65;100.00
46768;BME280;69007;48.978;18.066;2023-05-07T02:04:19;97626.41;;;11.54;100.00
46768;BME280;69007;48.978;18.066;2023-05-07T02:06:45;97620.97;;;11.39;100.00
46768;BME280;69007;48.978;18.066;2023-05-07T02:09:11;97636.50;;;11.59;100.00
46768;BME280;69007;48.978;18.066;2023-05-07T02:11:36;97636.22;;;11.66;100.00
46768;BME280;69007;48.978;18.066;2023-05-07T02:14:01;97629.41;;;11.63;100.00
46768;BME280;69007;48.978;18.066;2023-05-07T02:16:27;97581.16;;;11.33;100.00
46768;BME280;69007;48.978;18.066;2023-05-07T02:18:52;97635.41;;;11.60;100.00
46768;BME280;69007;48.978;18.066;2023-05-07T02:21:17;97604.59;;;11.65;100.00
46768;BME280;69007;48.978;18.066;2023-05-07T02:23:43;97587.16;;;11.40;100.00
46768;BME280;69007;48.978;18.066;2023-05-07T02:26:08;97635.69;;;11.53;100.00
46768;BME280;69007;48.978;18.066;2023-05-07T02:28:34;97629.13;;;11.54;100.00
46768;BME280;69007;48.978;18.066;2023-05-07T02:31:05;97617.16;;;11.55;100.00
46768;BME280;69007;48.978;18.066;2023-05-07T02:33:30;97607.06;;;11.35;100.00
46768;BME280;69007;48.978;18.066;2023-05-07T02:35:56;97631.00;;;11.23;100.00
46768;BME280;69007;48.978;18.066;2023-05-07T02:38:22;97595.25;;;10.94;100.00
46768;BME280;69007;48.978;18.066;2023-05-07T02:40:47;97635.63;;;11.07;100.00
46768;BME280;69007;48.978;18.066;2023-05-07T02:43:12;97623.63;;;11.18;100.00
46768;BME280;69007;48.978;18.066;2023-05-07T02:45:38;97638.34;;;11.07;100.00
46768;BME280;69007;48.978;18.066;2023-05-07T02:48:04;97623.91;;;11.12;100.00
46768;BME280;69007;48.978;18.066;2023-05-07T02:50:30;97630.66;;;10.94;100.00
46768;BME280;69007;48.978;18.066;2023-05-07T02:52:57;97624.16;;;11.00;100.00
46768;BME280;69007;48.978;18.066;2023-05-07T02:55:23;97608.06;;;10.88;100.00
46768;BME280;69007;48.978;18.066;2023-05-07T02:57:48;97631.25;;;11.06;100.00
46768;BME280;69007;48.978;18.066;2023-05-07T03:00:18;97615.94;;;10.90;100.00
46768;BME280;69007;48.978;18.066;2023-05-07T03:02:44;97606.91;;;10.74;100.00
46768;BME280;69007;48.978;18.066;2023-05-07T03:05:10;97632.84;;;10.92;100.00
46768;BME280;69007;48.978;18.066;2023-05-07T03:07:37;97639.66;;;10.94;100.00
46768;BME280;69007;48.978;18.066;2023-05-07T03:10:03;97634.75;;;10.91;100.00
46768;BME280;69007;48.978;18.066;2023-05-07T03:12:29;97647.50;;;10.85;100.00
46768;BME280;69007;48.978;18.066;2023-05-07T03:14:54;97634.75;;;10.91;100.00
46768;BME280;69007;48.978;18.066;2023-05-07T03:17:20;97663.63;;;10.97;100.00
46768;BME280;69007;48.978;18.066;2023-05-07T03:19:45;97656.50;;;10.86;100.00
46768;BME280;69007;48.978;18.066;2023-05-07T03:22:11;97656.19;;;10.77;100.00
46768;BME280;69007;48.978;18.066;2023-05-07T03:24:36;97657.84;;;10.78;100.00
46768;BME280;69007;48.978;18.066;2023-05-07T03:27:01;97658.97;;;10.93;100.00
46768;BME280;69007;48.978;18.066;2023-05-07T03:29:27;97666.34;;;10.97;100.00
46768;BME280;69007;48.978;18.066;2023-05-07T03:31:52;97676.97;;;10.99;100.00
46768;BME280;69007;48.978;18.066;2023-05-07T03:34:17;97677.03;;;11.14;100.00
46768;BME280;69007;48.978;18.066;2023-05-07T03:36:49;97667.47;;;11.12;100.00
46768;BME280;69007;48.978;18.066;2023-05-07T03:39:15;97665.06;;;11.15;100.00
46768;BME280;69007;48.978;18.066;2023-05-07T03:41:40;97651.97;;;11.12;100.00
46768;BME280;69007;48.978;18.066;2023-05-07T03:44:06;97678.16;;;11.29;100.00
46768;BME280;69007;48.978;18.066;2023-05-07T03:46:31;97654.69;;;11.12;100.00
46768;BME280;69007;48.978;18.066;2023-05-07T03:48:57;97651.97;;;11.22;100.00
46768;BME280;69007;48.978;18.066;2023-05-07T03:51:23;97685.00;;;11.57;100.00
46768;BME280;69007;48.978;18.066;2023-05-07T03:53:48;97665.88;;;11.31;100.00
46768;BME280;69007;48.978;18.066;2023-05-07T03:56:14;97643.81;;;11.17;100.00
46768;BME280;69007;48.978;18.066;2023-05-07T03:58:39;97695.59;;;11.48;100.00
46768;BME280;69007;48.978;18.066;2023-05-07T04:01:04;97658.84;;;11.40;100.00
46768;BME280;69007;48.978;18.066;2023-05-07T04:03:30;97668.88;;;11.40;100.00
46768;BME280;69007;48.978;18.066;2023-05-07T04:05:55;97692.66;;;11.65;100.00
46768;BME280;69007;48.978;18.066;2023-05-07T04:08:20;97667.25;;;11.34;100.00
46768;BME280;69007;48.978;18.066;2023-05-07T04:10:46;97706.28;;;11.70;100.00
46768;BME280;69007;48.978;18.066;2023-05-07T04:13:11;97706.84;;;11.77;100.00
46768;BME280;69007;48.978;18.066;2023-05-07T04:15:36;97714.47;;;11.86;100.00
46768;BME280;69007;48.978;18.066;2023-05-07T04:18:02;97691.84;;;11.75;100.00
46768;BME280;69007;48.978;18.066;2023-05-07T04:20:27;97712.59;;;12.12;100.00
46768;BME280;69007;48.978;18.066;2023-05-07T04:22:53;97717.78;;;12.19;100.00
46768;BME280;69007;48.978;18.066;2023-05-07T04:25:18;97723.78;;;12.36;100.00
46768;BME280;69007;48.978;18.066;2023-05-07T04:27:43;97707.41;;;12.15;100.00
46768;BME280;69007;48.978;18.066;2023-05-07T04:30:09;97693.47;;;11.60;100.00
46768;BME280;69007;48.978;18.066;2023-05-07T04:32:34;97743.06;;;11.73;100.00
46768;BME280;69007;48.978;18.066;2023-05-07T04:35:01;97721.88;;;12.11;100.00
46768;BME280;69007;48.978;18.066;2023-05-07T04:37:26;97723.78;;;12.21;100.00
46768;BME280;69007;48.978;18.066;2023-05-07T04:39:52;97743.69;;;12.11;100.00
46768;BME280;69007;48.978;18.066;2023-05-07T04:42:17;97725.38;;;11.91;100.00
46768;BME280;69007;48.978;18.066;2023-05-07T04:44:46;97708.75;;;11.77;100.00
46768;BME280;69007;48.978;18.066;2023-05-07T04:47:11;97752.41;;;12.03;100.00
46768;BME280;69007;48.978;18.066;2023-05-07T04:49:38;97716.38;;;11.85;100.00
46768;BME280;69007;48.978;18.066;2023-05-07T04:52:04;97751.63;;;12.23;100.00
46768;BME280;69007;48.978;18.066;2023-05-07T04:54:29;97759.81;;;12.28;100.00
46768;BME280;69007;48.978;18.066;2023-05-07T04:56:54;97757.88;;;12.28;100.00
46768;BME280;69007;48.978;18.066;2023-05-07T04:59:20;97703.88;;;12.10;100.00
46768;BME280;69007;48.978;18.066;2023-05-07T05:01:45;97766.47;;;13.07;100.00
46768;BME280;69007;48.978;18.066;2023-05-07T05:04:10;97758.13;;;13.54;100.00
46768;BME280;69007;48.978;18.066;2023-05-07T05:06:36;97770.00;;;13.78;100.00
46768;BME280;69007;48.978;18.066;2023-05-07T05:09:01;97788.88;;;15.37;100.00
46768;BME280;69007;48.978;18.066;2023-05-07T05:11:26;97738.47;;;16.14;100.00
46768;BME280;69007;48.978;18.066;2023-05-07T05:13:52;97770.88;;;18.48;100.00
46768;BME280;69007;48.978;18.066;2023-05-07T05:16:17;97770.47;;;19.66;100.00
46768;BME280;69007;48.978;18.066;2023-05-07T05:18:42;97775.56;;;19.99;97.96
46768;BME280;69007;48.978;18.066;2023-05-07T05:21:08;97751.34;;;20.04;100.00
46768;BME280;69007;48.978;18.066;2023-05-07T05:23:33;97778.34;;;20.16;100.00
46768;BME280;69007;48.978;18.066;2023-05-07T05:25:58;97753.06;;;22.95;86.06
46768;BME280;69007;48.978;18.066;2023-05-07T05:28:24;97756.47;;;22.34;88.74
46768;BME280;69007;48.978;18.066;2023-05-07T05:30:50;97761.28;;;22.91;84.92
46768;BME280;69007;48.978;18.066;2023-05-07T05:33:15;97771.53;;;24.10;73.58
46768;BME280;69007;48.978;18.066;2023-05-07T05:35:41;97762.91;;;22.04;80.18
46768;BME280;69007;48.978;18.066;2023-05-07T05:38:07;97772.28;;;18.00;100.00
46768;BME280;69007;48.978;18.066;2023-05-07T05:40:32;97772.00;;;18.69;100.00
46768;BME280;69007;48.978;18.066;2023-05-07T05:42:58;97782.19;;;18.46;100.00
46768;BME280;69007;48.978;18.066;2023-05-07T05:45:24;97770.03;;;16.30;100.00
46768;BME280;69007;48.978;18.066;2023-05-07T05:47:49;97752.06;;;18.72;100.00
46768;BME280;69007;48.978;18.066;2023-05-07T05:50:14;97753.81;;;20.41;92.52
46768;BME280;69007;48.978;18.066;2023-05-07T05:52:40;97780.72;;;22.16;75.60
46768;BME280;69007;48.978;18.066;2023-05-07T05:55:06;97758.16;;;22.26;69.60
46768;BME280;69007;48.978;18.066;2023-05-07T05:57:31;97755.63;;;24.96;66.55
46768;BME280;69007;48.978;18.066;2023-05-07T05:59:57;97758.13;;;21.24;77.51
46768;BME280;69007;48.978;18.066;2023-05-07T06:02:22;97776.25;;;20.13;85.09
46768;BME280;69007;48.978;18.066;2023-05-07T06:04:48;97754.00;;;17.54;100.00
46768;BME280;69007;48.978;18.066;2023-05-07T06:07:14;97769.22;;;17.09;100.00
46768;BME280;69007;48.978;18.066;2023-05-07T06:09:39;97777.97;;;16.32;100.00
46768;BME280;69007;48.978;18.066;2023-05-07T06:12:05;97793.28;;;15.33;100.00
46768;BME280;69007;48.978;18.066;2023-05-07T06:14:30;97784.50;;;14.53;100.00
46768;BME280;69007;48.978;18.066;2023-05-07T06:16:56;97751.59;;;14.87;100.00
46768;BME280;69007;48.978;18.066;2023-05-07T06:19:21;97780.78;;;14.44;100.00
46768;BME280;69007;48.978;18.066;2023-05-07T06:21:49;97727.97;;;14.04;100.00
46768;BME280;69007;48.978;18.066;2023-05-07T06:24:14;97790.59;;;14.45;100.00
46768;BME280;69007;48.978;18.066;2023-05-07T06:26:40;97774.84;;;14.66;100.00
46768;BME280;69007;48.978;18.066;2023-05-07T06:29:05;97767.22;;;14.57;100.00
46768;BME280;69007;48.978;18.066;2023-05-07T06:31:31;97770.66;;;14.98;100.00
46768;BME280;69007;48.978;18.066;2023-05-07T06:33:57;97787.94;;;15.65;100.00
46768;BME280;69007;48.978;18.066;2023-05-07T06:36:22;97763.75;;;16.11;100.00
46768;BME280;69007;48.978;18.066;2023-05-07T06:38:47;97768.28;;;17.14;98.13
46768;BME280;69007;48.978;18.066;2023-05-07T06:41:13;97772.88;;;16.25;100.00
46768;BME280;69007;48.978;18.066;2023-05-07T06:43:38;97777.41;;;16.49;100.00
46768;BME280;69007;48.978;18.066;2023-05-07T06:46:03;97772.16;;;16.00;100.00
46768;BME280;69007;48.978;18.066;2023-05-07T06:48:29;97733.47;;;15.97;100.00
46768;BME280;69007;48.978;18.066;2023-05-07T06:50:54;97743.38;;;16.31;100.00
46768;BME280;69007;48.978;18.066;2023-05-07T06:53:20;97749.47;;;16.61;100.00
46768;BME280;69007;48.978;18.066;2023-05-07T06:55:46;97778.53;;;16.48;100.00
46768;BME280;69007;48.978;18.066;2023-05-07T06:58:11;97761.66;;;16.21;100.00
46768;BME280;69007;48.978;18.066;2023-05-07T07:00:37;97771.56;;;15.84;100.00
46768;BME280;69007;48.978;18.066;2023-05-07T07:03:02;97743.84;;;15.43;100.00
46768;BME280;69007;48.978;18.066;2023-05-07T07:05:27;97732.72;;;15.10;100.00
46768;BME280;69007;48.978;18.066;2023-05-07T07:07:53;97781.09;;;15.44;100.00
46768;BME280;69007;48.978;18.066;2023-05-07T07:10:19;97770.81;;;15.11;100.00
46768;BME280;69007;48.978;18.066;2023-05-07T07:12:45;97762.50;;;15.84;100.00
46768;BME280;69007;48.978;18.066;2023-05-07T07:15:11;97777.91;;;16.18;100.00
46768;BME280;69007;48.978;18.066;2023-05-07T07:17:37;97785.63;;;16.16;100.00
46768;BME280;69007;48.978;18.066;2023-05-07T07:20:02;97772.50;;;15.51;100.00
46768;BME280;69007;48.978;18.066;2023-05-07T07:22:28;97767.19;;;14.92;100.00
46768;BME280;69007;48.978;18.066;2023-05-07T07:24:54;97784.19;;;14.89;100.00
46768;BME280;69007;48.978;18.066;2023-05-07T07:27:19;97780.59;;;15.42;100.00
46768;BME280;69007;48.978;18.066;2023-05-07T07:29:44;97787.16;;;15.65;96.84
46768;BME280;69007;48.978;18.066;2023-05-07T07:32:10;97791.94;;;16.16;98.80
46768;BME280;69007;48.978;18.066;2023-05-07T07:34:35;97765.25;;;16.03;100.00
46768;BME280;69007;48.978;18.066;2023-05-07T07:37:01;97791.56;;;16.23;100.00
46768;BME280;69007;48.978;18.066;2023-05-07T07:39:30;97781.44;;;15.86;100.00
46768;BME280;69007;48.978;18.066;2023-05-07T07:41:56;97789.69;;;16.18;96.35
46768;BME280;69007;48.978;18.066;2023-05-07T07:44:21;97771.03;;;14.91;100.00
46768;BME280;69007;48.978;18.066;2023-05-07T07:46:47;97798.63;;;15.48;100.00
46768;BME280;69007;48.978;18.066;2023-05-07T07:49:12;97797.78;;;16.10;99.06
46768;BME280;69007;48.978;18.066;2023-05-07T07:51:38;97795.09;;;16.75;98.75
46768;BME280;69007;48.978;18.066;2023-05-07T07:54:03;97770.56;;;16.65;100.00
46768;BME280;69007;48.978;18.066;2023-05-07T07:56:29;97797.25;;;16.27;100.00
46768;BME280;69007;48.978;18.066;2023-05-07T07:58:54;97799.47;;;17.09;96.27
46768;BME280;69007;48.978;18.066;2023-05-07T08:01:20;97795.19;;;17.03;99.41
46768;BME280;69007;48.978;18.066;2023-05-07T08:03:45;97797.72;;;17.13;100.00
46768;BME280;69007;48.978;18.066;2023-05-07T08:06:10;97805.63;;;18.35;89.43
46768;BME280;69007;48.978;18.066;2023-05-07T08:08:36;97804.53;;;17.02;90.40
46768;BME280;69007;48.978;18.066;2023-05-07T08:11:01;97807.19;;;17.07;95.42
46768;BME280;69007;48.978;18.066;2023-05-07T08:13:27;97807.31;;;17.30;90.12
46768;BME280;69007;48.978;18.066;2023-05-07T08:15:52;97824.72;;;17.53;98.92
46768;BME280;69007;48.978;18.066;2023-05-07T08:18:18;97802.81;;;17.90;85.98
46768;BME280;69007;48.978;18.066;2023-05-07T08:20:43;97804.22;;;16.90;90.26
46768;BME280;69007;48.978;18.066;2023-05-07T08:23:09;97816.13;;;16.85;93.26
46768;BME280;69007;48.978;18.066;2023-05-07T08:25:34;97807.13;;;17.26;93.32
46768;BME280;69007;48.978;18.066;2023-05-07T08:28:00;97798.34;;;17.10;94.70
46768;BME280;69007;48.978;18.066;2023-05-07T08:30:26;97818.66;;;16.63;96.59
46768;BME280;69007;48.978;18.066;2023-05-07T08:32:51;97819.03;;;17.22;88.64
46768;BME280;69007;48.978;18.066;2023-05-07T08:35:17;97807.50;;;17.20;98.98
46768;BME280;69007;48.978;18.066;2023-05-07T08:37:42;97816.38;;;17.44;94.66
46768;BME280;69007;48.978;18.066;2023-05-07T08:40:09;97809.66;;;17.37;95.25
46768;BME280;69007;48.978;18.066;2023-05-07T08:42:36;97811.69;;;16.84;92.28
46768;BME280;69007;48.978;18.066;2023-05-07T08:45:08;97805.97;;;16.67;95.84
46768;BME280;69007;48.978;18.066;2023-05-07T08:47:47;97797.03;;;17.36;90.77
46768;BME280;69007;48.978;18.066;2023-05-07T08:50:15;97786.41;;;17.29;97.22
46768;BME280;69007;48.978;18.066;2023-05-07T08:52:41;97818.00;;;17.18;87.69
46768;BME280;69007;48.978;18.066;2023-05-07T08:55:07;97807.47;;;17.06;89.80
46768;BME280;69007;48.978;18.066;2023-05-07T08:57:33;97799.50;;;18.01;95.38
46768;BME280;69007;48.978;18.066;2023-05-07T08:59:58;97821.47;;;17.93;83.51
46768;BME280;69007;48.978;18.066;2023-05-07T09:02:24;97813.09;;;17.84;80.76
46768;BME280;69007;48.978;18.066;2023-05-07T09:04:49;97820.13;;;18.04;86.86
46768;BME280;69007;48.978;18.066;2023-05-07T09:07:16;97813.41;;;17.82;85.90
46768;BME280;69007;48.978;18.066;2023-05-07T09:09:41;97811.25;;;17.93;88.03
46768;BME280;69007;48.978;18.066;2023-05-07T09:12:09;97812.78;;;17.85;81.20
46768;BME280;69007;48.978;18.066;2023-05-07T09:14:35;97799.91;;;18.09;83.79
46768;BME280;69007;48.978;18.066;2023-05-07T09:17:00;97814.91;;;18.39;80.95
46768;BME280;69007;48.978;18.066;2023-05-07T09:19:27;97801.78;;;17.72;85.87
46768;BME280;69007;48.978;18.066;2023-05-07T09:22:00;97814.59;;;18.04;89.85
46768;BME280;69007;48.978;18.066;2023-05-07T09:24:26;97826.28;;;18.46;93.61
46768;BME280;69007;48.978;18.066;2023-05-07T09:26:51;97826.84;;;17.98;79.33
46768;BME280;69007;48.978;18.066;2023-05-07T09:29:17;97821.84;;;17.86;85.57
46768;BME280;69007;48.978;18.066;2023-05-07T09:31:43;97837.97;;;17.93;85.02
46768;BME280;69007;48.978;18.066;2023-05-07T09:34:08;97811.47;;;17.69;79.82
46768;BME280;69007;48.978;18.066;2023-05-07T09:36:34;97813.53;;;17.36;82.02
46768;BME280;69007;48.978;18.066;2023-05-07T09:39:00;97791.22;;;17.09;85.07
46768;BME280;69007;48.978;18.066;2023-05-07T09:41:26;97797.75;;;17.27;86.95
46768;BME280;69007;48.978;18.066;2023-05-07T09:43:54;97812.97;;;17.06;85.44
46768;BME280;69007;48.978;18.066;2023-05-07T09:46:25;97807.31;;;17.16;84.73
46768;BME280;69007;48.978;18.066;2023-05-07T09:48:57;97827.50;;;17.39;83.18
46768;BME280;69007;48.978;18.066;2023-05-07T09:51:29;97793.06;;;17.56;85.79
46768;BME280;69007;48.978;18.066;2023-05-07T09:53:56;97821.47;;;17.37;81.22
46768;BME280;69007;48.978;18.066;2023-05-07T09:56:22;97814.25;;;17.27;81.89
46768;BME280;69007;48.978;18.066;2023-05-07T09:58:49;97813.22;;;17.23;84.99
46768;BME280;69007;48.978;18.066;2023-05-07T10:01:17;97822.41;;;17.33;84.91
46768;BME280;69007;48.978;18.066;2023-05-07T10:03:44;97796.72;;;17.51;85.53
46768;BME280;69007;48.978;18.066;2023-05-07T10:06:11;97789.34;;;17.60;89.00
46768;BME280;69007;48.978;18.066;2023-05-07T10:08:38;97810.78;;;17.49;85.63
46768;BME280;69007;48.978;18.066;2023-05-07T10:11:05;97806.28;;;17.54;87.84
46768;BME280;69007;48.978;18.066;2023-05-07T10:13:32;97814.72;;;17.16;93.92
46768;BME280;69007;48.978;18.066;2023-05-07T10:16:01;97785.41;;;17.25;83.72
46768;BME280;69007;48.978;18.066;2023-05-07T10:18:28;97796.72;;;17.37;85.73
46768;BME280;69007;48.978;18.066;2023-05-07T10:21:19;97801.16;;;16.91;87.63
46768;BME280;69007;48.978;18.066;2023-05-07T10:23:47;97788.00;;;16.42;88.36
46768;BME280;69007;48.978;18.066;2023-05-07T10:26:15;97816.66;;;17.15;92.84
46768;BME280;69007;48.978;18.066;2023-05-07T10:28:43;97819.75;;;17.27;91.37
46768;BME280;69007;48.978;18.066;2023-05-07T10:34:14;97805.06;;;17.32;97.82
46768;BME280;69007;48.978;18.066;2023-05-07T10:36:41;97800.78;;;16.98;90.15
46768;BME280;69007;48.978;18.066;2023-05-07T10:39:07;97833.31;;;16.91;95.13
46768;BME280;69007;48.978;18.066;2023-05-07T10:41:33;97831.63;;;16.95;89.06
46768;BME280;69007;48.978;18.066;2023-05-07T10:43:58;97842.63;;;17.09;87.92
46768;BME280;69007;48.978;18.066;2023-05-07T10:46:26;97822.41;;;16.86;88.85
46768;BME280;69007;48.978;18.066;2023-05-07T10:51:31;97829.47;;;16.40;94.56
46768;BME280;69007;48.978;18.066;2023-05-07T10:56:39;97830.78;;;16.62;87.92
46768;BME280;69007;48.978;18.066;2023-05-07T10:59:30;97837.63;;;16.26;87.45
46768;BME280;69007;48.978;18.066;2023-05-07T11:02:01;97828.88;;;16.95;100.00
46768;BME280;69007;48.978;18.066;2023-05-07T11:04:31;97849.13;;;16.28;93.16
46768;BME280;69007;48.978;18.066;2023-05-07T11:15:09;97834.28;;;15.91;96.12
46768;BME280;69007;48.978;18.066;2023-05-07T11:17:52;97830.22;;;16.08;93.44
46768;BME280;69007;48.978;18.066;2023-05-07T11:20:18;97825.56;;;15.89;96.77
46768;BME280;69007;48.978;18.066;2023-05-07T11:22:44;97827.03;;;16.38;100.00
46768;BME280;69007;48.978;18.066;2023-05-07T11:25:09;97826.78;;;15.78;99.05
46768;BME280;69007;48.978;18.066;2023-05-07T11:27:35;97839.63;;;16.01;95.22
46768;BME280;69007;48.978;18.066;2023-05-07T11:30:00;97841.00;;;16.04;100.00
46768;BME280;69007;48.978;18.066;2023-05-07T11:32:31;97833.78;;;16.27;98.11
46768;BME280;69007;48.978;18.066;2023-05-07T11:35:00;97834.75;;;16.17;99.63
46768;BME280;69007;48.978;18.066;2023-05-07T11:37:27;97853.53;;;16.29;97.15
46768;BME280;69007;48.978;18.066;2023-05-07T11:40:08;97840.38;;;16.26;97.05
46768;BME280;69007;48.978;18.066;2023-05-07T11:42:36;97817.47;;;16.17;100.00
46768;BME280;69007;48.978;18.066;2023-05-07T11:45:03;97845.72;;;15.79;100.00
46768;BME280;69007;48.978;18.066;2023-05-07T11:47:32;97840.19;;;15.55;100.00
46768;BME280;69007;48.978;18.066;2023-05-07T11:50:05;97840.75;;;15.33;100.00
46768;BME280;69007;48.978;18.066;2023-05-07T11:52:31;97826.13;;;15.62;100.00
46768;BME280;69007;48.978;18.066;2023-05-07T11:54:58;97857.59;;;15.70;100.00
46768;BME280;69007;48.978;18.066;2023-05-07T11:57:26;97812.81;;;15.74;100.00
46768;BME280;69007;48.978;18.066;2023-05-07T11:59:58;97845.28;;;15.91;100.00
46768;BME280;69007;48.978;18.066;2023-05-07T12:02:24;97832.66;;;15.90;100.00
46768;BME280;69007;48.978;18.066;2023-05-07T12:04:53;97858.19;;;16.10;100.00
46768;BME280;69007;48.978;18.066;2023-05-07T12:07:19;97865.03;;;16.12;100.00
46768;BME280;69007;48.978;18.066;2023-05-07T12:09:45;97868.81;;;16.16;100.00
46768;BME280;69007;48.978;18.066;2023-05-07T12:12:11;97850.31;;;15.84;100.00
46768;BME280;69007;48.978;18.066;2023-05-07T12:14:45;97881.22;;;16.14;100.00
46768;BME280;69007;48.978;18.066;2023-05-07T12:17:12;97870.34;;;16.03;96.96
46768;BME280;69007;48.978;18.066;2023-05-07T12:19:41;97893.38;;;16.46;100.00
46768;BME280;69007;48.978;18.066;2023-05-07T12:22:08;97882.91;;;16.48;95.53
46768;BME280;69007;48.978;18.066;2023-05-07T12:24:57;97854.41;;;15.62;97.96
46768;BME280;69007;48.978;18.066;2023-05-07T12:27:23;97884.22;;;15.69;100.00
46768;BME280;69007;48.978;18.066;2023-05-07T12:29:50;97883.94;;;15.71;100.00
46768;BME280;69007;48.978;18.066;2023-05-07T12:32:16;97906.06;;;15.26;100.00
46768;BME280;69007;48.978;18.066;2023-05-07T12:34:43;97883.94;;;15.17;100.00
46768;BME280;69007;48.978;18.066;2023-05-07T12:37:08;97880.53;;;15.55;100.00
46768;BME280;69007;48.978;18.066;2023-05-07T12:39:35;97883.91;;;15.76;100.00
46768;BME280;69007;48.978;18.066;2023-05-07T12:42:00;97850.22;;;15.41;100.00
46768;BME280;69007;48.978;18.066;2023-05-07T12:44:35;97880.06;;;15.72;99.21
46768;BME280;69007;48.978;18.066;2023-05-07T12:47:03;97860.09;;;15.66;100.00
46768;BME280;69007;48.978;18.066;2023-05-07T12:49:28;97884.69;;;16.19;100.00
46768;BME280;69007;48.978;18.066;2023-05-07T12:51:54;97875.69;;;15.46;100.00
46768;BME280;69007;48.978;18.066;2023-05-07T12:54:30;97886.09;;;15.50;100.00